createdAt,value
2023-03-06T00:02:59.772Z,54.30
2023-03-06T00:08:03.326Z,53.94
2023-03-06T00:13:09.348Z,54.75
2023-03-06T00:18:14.320Z,55.95
2023-03-06T00:23:17.797Z,55.77
2023-03-06T00:28:21.246Z,54.04
2023-03-06T00:33:26.086Z,53.99
2023-03-06T00:38:33.531Z,54.49
2023-03-06T00:43:37.009Z,55.36
2023-03-06T00:48:41.928Z,54.96
2023-03-06T00:53:45.428Z,54.80
2023-03-06T00:58:48.909Z,54.47
2023-03-06T01:03:53.804Z,55.69
2023-03-06T01:08:57.331Z,55.37
2023-03-06T01:14:01.123Z,55.59
2023-03-06T01:19:06.068Z,56.45
2023-03-06T01:24:09.804Z,54.59
2023-03-06T01:29:13.264Z,55.79
2023-03-06T01:34:18.117Z,55.98
2023-03-06T01:39:21.639Z,55.23
2023-03-06T01:44:25.222Z,53.98
2023-03-06T01:49:32.439Z,56.06
2023-03-06T01:54:37.805Z,54.46
2023-03-06T01:59:42.384Z,55.00
2023-03-06T02:04:47.908Z,55.56
2023-03-06T02:09:51.342Z,55.08
2023-03-06T02:14:55.111Z,54.94
2023-03-06T02:20:05.775Z,56.08
2023-03-06T02:25:13.672Z,54.35
2023-03-06T02:30:19.667Z,55.07
2023-03-06T02:35:25.333Z,56.31
2023-03-06T02:40:29.166Z,55.66
2023-03-06T02:45:37.554Z,56.14
2023-03-06T02:50:41.327Z,54.98
2023-03-06T02:55:45.078Z,55.25
2023-03-06T03:00:50.360Z,56.22
2023-03-06T03:05:53.816Z,55.99
2023-03-06T03:10:57.739Z,55.35
2023-03-06T03:16:04.346Z,54.25
2023-03-06T03:21:09.172Z,55.41
2023-03-06T03:26:13.819Z,54.76
2023-03-06T03:31:18.761Z,55.77
2023-03-06T03:36:22.256Z,55.30
2023-03-06T03:41:25.698Z,55.92
2023-03-06T03:46:30.626Z,54.97
2023-03-06T03:51:34.193Z,55.14
2023-03-06T03:56:37.686Z,56.00
2023-03-06T04:01:42.573Z,55.06
2023-03-06T04:06:46.057Z,55.17
2023-03-06T04:11:49.564Z,54.64
2023-03-06T04:16:54.498Z,55.85
2023-03-06T04:21:57.930Z,55.34
2023-03-06T04:27:01.372Z,54.80
2023-03-06T04:32:06.741Z,55.85
2023-03-06T04:37:14.332Z,54.47
2023-03-06T04:42:17.970Z,55.83
2023-03-06T04:47:22.880Z,55.13
2023-03-06T04:52:26.394Z,55.29
2023-03-06T04:57:29.912Z,56.25
2023-03-06T05:02:34.918Z,55.55
2023-03-06T05:07:38.544Z,54.64
2023-03-06T05:12:42.156Z,55.68
2023-03-06T05:17:47.752Z,55.16
2023-03-06T05:22:51.170Z,55.87
2023-03-06T05:27:54.649Z,55.92
2023-03-06T05:32:59.533Z,56.40
2023-03-06T05:38:03.033Z,55.98
2023-03-06T05:43:07.512Z,55.60
2023-03-06T05:48:13.949Z,56.04
2023-03-06T05:53:17.453Z,54.94
2023-03-06T05:58:20.897Z,55.12
2023-03-06T06:03:26.024Z,55.81
2023-03-06T06:08:29.519Z,54.61
2023-03-06T06:13:33.606Z,55.35
2023-03-06T06:18:41.025Z,55.90
2023-03-06T06:23:45.126Z,55.04
2023-03-06T06:28:48.600Z,56.29
2023-03-06T06:33:53.529Z,54.98
2023-03-06T06:38:57.004Z,55.26
2023-03-06T06:44:00.963Z,56.47
2023-03-06T06:49:05.898Z,55.76
2023-03-06T06:54:09.856Z,55.55
2023-03-06T06:59:16.996Z,56.26
2023-03-06T07:04:22.218Z,55.54
2023-03-06T07:09:26.067Z,56.58
2023-03-06T07:14:29.530Z,56.16
2023-03-06T07:19:34.432Z,55.48
2023-03-06T07:24:37.942Z,54.82
2023-03-06T07:29:43.905Z,55.09
2023-03-06T07:34:48.832Z,54.92
2023-03-06T07:39:52.229Z,54.69
2023-03-06T07:44:55.687Z,56.13
2023-03-06T07:50:03.298Z,55.08
2023-03-06T07:55:07.769Z,56.10
2023-03-06T08:00:14.163Z,56.20
2023-03-06T08:05:19.059Z,56.06
2023-03-06T08:10:22.765Z,55.80
2023-03-06T08:15:26.344Z,56.00
2023-03-06T08:20:31.139Z,55.29
2023-03-06T08:25:34.545Z,56.67
2023-03-06T08:30:37.995Z,55.33
2023-03-06T08:35:42.898Z,55.32
2023-03-06T08:40:46.401Z,54.69
2023-03-06T08:45:53.476Z,55.60
2023-03-06T08:50:58.288Z,56.65
2023-03-06T08:56:01.707Z,56.51
2023-03-06T09:01:07.374Z,56.83
2023-03-06T09:06:12.519Z,57.07
2023-03-06T09:11:17.195Z,57.33
2023-03-06T09:16:20.807Z,56.95
2023-03-06T09:21:27.301Z,57.48
2023-03-06T09:26:45.042Z,57.41
2023-03-06T09:31:49.929Z,56.97
2023-03-06T09:36:57.068Z,57.77
2023-03-06T09:42:01.084Z,57.21
2023-03-06T09:47:27.734Z,56.99
2023-03-06T09:52:38.666Z,57.29
2023-03-06T09:57:46.074Z,57.81
2023-03-06T10:02:51.692Z,56.84
2023-03-06T10:08:01.815Z,57.49
2023-03-06T10:13:09.585Z,56.87
2023-03-06T10:18:13.551Z,57.09
2023-03-06T10:23:27.469Z,57.39
2023-03-06T10:28:35.593Z,57.79
2023-03-06T10:33:46.179Z,56.61
2023-03-06T10:38:50.999Z,57.12
2023-03-06T10:44:20.292Z,57.37
2023-03-06T10:49:36.384Z,56.89
2023-03-06T10:54:43.096Z,57.37
2023-03-06T10:59:53.540Z,57.52
2023-03-06T11:04:57.599Z,56.93
2023-03-06T11:10:06.455Z,57.67
2023-03-06T11:15:18.509Z,57.04
2023-03-06T11:20:24.287Z,57.33
2023-03-06T11:25:33.928Z,56.60
2023-03-06T11:30:42.709Z,57.95
2023-03-06T11:35:53.491Z,58.02
2023-03-06T11:41:00.823Z,57.00
2023-03-06T11:46:08.770Z,57.75
2023-03-06T11:51:16.188Z,57.69
2023-03-06T11:56:31.947Z,58.76
2023-03-06T12:01:37.591Z,58.74
2023-03-06T12:06:47.169Z,58.58
2023-03-06T12:12:01.659Z,58.95
2023-03-06T12:17:14.881Z,58.35
2023-03-06T12:22:29.137Z,58.27
2023-03-06T12:27:42.209Z,58.92
2023-03-06T12:32:50.656Z,58.62
2023-03-06T12:38:01.741Z,58.82
2023-03-06T12:43:24.871Z,59.16
2023-03-06T12:48:30.761Z,59.08
2023-03-06T12:53:35.941Z,58.43
2023-03-06T12:58:53.408Z,58.35
2023-03-06T13:04:05.646Z,58.78
2023-03-06T13:09:20.973Z,58.86
2023-03-06T13:14:28.019Z,59.40
2023-03-06T13:19:31.400Z,58.71
2023-03-06T13:24:37.283Z,59.50
2023-03-06T13:29:54.159Z,58.99
2023-03-06T13:34:57.591Z,59.55
2023-03-06T13:40:27.520Z,59.45
2023-03-06T13:45:35.120Z,59.66
2023-03-06T13:50:40.965Z,59.67
2023-03-06T13:55:50.904Z,59.99
2023-03-06T14:01:07.198Z,59.99
2023-03-06T14:06:47.749Z,60.30
2023-03-06T14:11:54.233Z,60.15
2023-03-06T14:17:00.056Z,59.61
2023-03-06T14:22:04.440Z,59.41
2023-03-06T14:27:09.370Z,60.51
2023-03-06T14:32:15.939Z,60.22
2023-03-06T14:37:22.849Z,59.82
2023-03-06T14:42:27.869Z,60.41
2023-03-06T14:47:34.252Z,60.12
2023-03-06T14:52:37.732Z,60.91
2023-03-06T14:57:41.300Z,59.30
2023-03-06T15:02:46.608Z,60.64
2023-03-06T15:07:50.455Z,60.73
2023-03-06T15:12:54.141Z,60.21
2023-03-06T15:17:59.106Z,60.83
2023-03-06T15:23:02.611Z,60.27
2023-03-06T15:28:26.081Z,60.16
2023-03-06T15:33:31.419Z,60.49
2023-03-06T15:38:40.545Z,60.13
2023-03-06T15:43:44.077Z,60.78
2023-03-06T15:48:55.988Z,59.75
2023-03-06T15:54:11.306Z,60.84
2023-03-06T15:59:19.618Z,60.46
2023-03-06T16:04:24.556Z,60.06
2023-03-06T16:09:27.989Z,60.82
2023-03-06T16:14:31.623Z,60.74
2023-03-06T16:19:36.457Z,60.28
2023-03-06T16:24:39.935Z,60.21
2023-03-06T16:29:43.339Z,61.13
2023-03-06T16:34:48.176Z,60.63
2023-03-06T16:39:51.723Z,61.53
2023-03-06T16:44:55.237Z,61.63
2023-03-06T16:50:02.178Z,61.55
2023-03-06T16:55:06.178Z,61.28
2023-03-06T17:00:11.567Z,62.00
2023-03-06T17:05:16.430Z,61.38
2023-03-06T17:10:22.825Z,61.51
2023-03-06T17:15:26.341Z,61.78
2023-03-06T17:20:31.262Z,61.39
2023-03-06T17:25:35.194Z,61.53
2023-03-06T17:30:38.783Z,61.45
2023-03-06T17:35:43.631Z,62.02
2023-03-06T17:40:47.161Z,60.75
2023-03-06T17:45:50.654Z,62.18
2023-03-06T17:50:56.280Z,61.64
2023-03-06T17:55:59.880Z,61.53
2023-03-06T18:01:11.430Z,61.90
2023-03-06T18:06:16.932Z,61.77
2023-03-06T18:11:20.414Z,61.50
2023-03-06T18:16:25.876Z,61.95
2023-03-06T18:21:30.914Z,61.84
2023-03-06T18:26:34.447Z,61.45
2023-03-06T18:31:39.273Z,61.15
2023-03-06T18:36:44.240Z,61.75
2023-03-06T18:41:47.820Z,61.87
2023-03-06T18:46:51.300Z,62.15
2023-03-06T18:51:56.383Z,61.62
2023-03-06T18:56:59.908Z,61.69
2023-03-06T19:02:03.436Z,62.40
2023-03-06T19:07:08.369Z,62.14
2023-03-06T19:12:12.012Z,61.57
2023-03-06T19:17:15.500Z,62.09
2023-03-06T19:22:20.581Z,61.84
2023-03-06T19:27:24.045Z,62.38
2023-03-06T19:32:27.817Z,61.93
2023-03-06T19:37:33.348Z,62.04
2023-03-06T19:42:36.888Z,62.18
2023-03-06T19:47:40.315Z,62.55
2023-03-06T19:52:45.169Z,62.16
2023-03-06T19:57:49.194Z,62.92
2023-03-06T20:02:52.746Z,62.54
2023-03-06T20:07:57.680Z,62.63
2023-03-06T20:13:01.131Z,62.50
2023-03-06T20:18:06.096Z,62.16
2023-03-06T20:23:11.444Z,62.53
2023-03-06T20:28:14.876Z,63.22
2023-03-06T20:33:19.779Z,62.92
2023-03-06T20:38:24.673Z,62.64
2023-03-06T20:43:28.132Z,63.23
2023-03-06T20:48:31.664Z,63.18
2023-03-06T20:53:36.598Z,62.88
2023-03-06T20:58:40.068Z,63.15
2023-03-06T21:03:43.713Z,63.18
2023-03-06T21:08:49.005Z,63.15
2023-03-06T21:13:53.614Z,63.54
2023-03-06T21:18:57.516Z,62.79
2023-03-06T21:24:02.813Z,63.17
2023-03-06T21:29:06.287Z,62.98
2023-03-06T21:34:11.661Z,63.07
2023-03-06T21:39:16.553Z,62.93
2023-03-06T21:44:20.024Z,63.22
2023-03-06T21:49:26.334Z,63.16
2023-03-06T21:54:31.298Z,62.83
2023-03-06T21:59:34.736Z,62.14
2023-03-06T22:04:38.253Z,63.47
2023-03-06T22:09:43.220Z,62.21
2023-03-06T22:14:46.830Z,62.22
2023-03-06T22:19:50.439Z,61.95
2023-03-06T22:24:55.319Z,63.38
2023-03-06T22:29:58.791Z,63.13
2023-03-06T22:35:02.283Z,61.88
2023-03-06T22:40:08.471Z,63.06
2023-03-06T22:45:13.002Z,62.55
2023-03-06T22:50:16.412Z,62.70
2023-03-06T22:55:21.283Z,62.40
2023-03-06T23:00:25.754Z,63.14
2023-03-06T23:05:29.933Z,63.33
2023-03-06T23:10:38.287Z,62.99
2023-03-06T23:15:41.735Z,63.09
2023-03-06T23:20:45.391Z,63.10
2023-03-06T23:25:50.348Z,62.70
2023-03-06T23:30:54.100Z,63.01
2023-03-06T23:35:57.612Z,63.07
2023-03-06T23:41:04.904Z,63.05
2023-03-06T23:46:08.935Z,63.40
2023-03-06T23:51:15.840Z,63.15
2023-03-06T23:56:20.729Z,63.22
